KLIC/LIC METAR and TAF weather

Enter ICAO airport designator
Station Type Date Time Source
KLIC METAR 2019/08/23 14:55 UTC NOAA

KLIC 231455Z AUTO 15011KT 10SM FEW009 20/16 A3006 RMK AO2 SLP105 T02000156 50001


Station Type Date Time Source
KLIC Decoded METAR 2019/08/23 14:55 UTC NOAA

Station name not available
Aug 23, 2019 - 10:55 AM EDT / 2019.08.23 1455 UTC
Wind: from the SSE (150 degrees) at 13 MPH (11 KT):0
Visibility: 10 mile(s):0
Sky conditions: mostly clear
Temperature: 68.0 F (20.0 C)
Dew Point: 60.1 F (15.6 C)
Relative Humidity: 75%
Pressure (altimeter): 30.06 in. Hg (1017 hPa)
Pressure tendency: 0.00 inches (0.1 hPa) higher than three hours ago
ob: KLIC 231455Z AUTO 15011KT 10SM FEW009 20/16 A3006 RMK AO2 SLP105 T02000156 50001
cycle: 15

Station Type Date Time Source
KLIC TAF UTC NOAA

Error!

Example: see airport list